Pagina principale
METAR-TAF:

METAR-TAF

Aeroporti :

Koror, Babeldaob, Palau

Aeroporto Internazionale di Palau

latitudine: 07-22N, longitudine: 134-32E, altezza: 54 m

Osservazione

Il bollettino è stato emesso 57 minuti fa, alle 10:50 UTC
Vento calmo
Temperature 27°C
Umidità 84%
Pressione 1009 hPa
Visibilità: 24.1 km
Nubi sparse ad un'altezza di 1600 ft
Nubi sparse ad un'altezza di 12000 ft
Nuvoloso ad un'altezza di 30000 ft

METAR: PTRO 191050Z 00000KT 15SM SCT016 SCT120 BKN300 27/24 A2979

Ora: 20:47 (11:47 UTC)

Previsione

Il bollettino è stato emesso 27 minuti fa, alle 11:20 UTC
Previsione valida dal 19 alle 12 UTC al 20 alle 12 UTC
Vento 7 kt da nord-est
Visibilità: 10 km
Nubi sparse ad un'altezza di 1600 ft
Nubi sparse ad un'altezza di 12000 ft
Nuvoloso ad un'altezza di 30000 ft

TAF: PTRO 191120Z 1912/2012 04007KT P6SM SCT016 SCT120 BKN300

Osservazioni e previsioni meteorologiche di più di 4000 aeroporti (messaggi METAR e TAF).

Le stazioni disponibili sono rappresentate dai dischi gialli e rossi sulla carta.

Puntare il mouse per vedere il nome della stazione.

Clicca sopra per visualizzare le osservazioni e previsioni meteorologiche.

Per cambiare la mappa : fare clic sui pulsanti verdi con una croce nera per ingrandire, il pulsante verde con un trattino per diminuire, o sulla freccia verde per le mappe adiacenti.


METAR-TAF: